Time;durP1;ratioP1;P1;durP2;ratioP2;P2;SDS_P1;SDS_P2;PMS_P1;PMS_P2;Temp;Humidity;BMP_temperature;BMP_pressure;BME280_temperature;BME280_humidity;BME280_pressure;Samples;Min_cycle;Max_cycle;Signal;HPM_P1;HPM_P2
2022/06/11 00:01:12;;;;;;;;;;;;;;;-144.99;100.00;52297.25;5057602;28;19925;-61
2022/06/11 00:03:39;;;;;;;;;;;;;;;-144.99;100.00;52313.56;5060320;28;20377;-61
2022/06/11 00:06:05;;;;;;;;;;;;;;;-144.99;100.00;52313.56;5059740;28;19930;-61
2022/06/11 00:08:32;;;;;;;;;;;;;;;-144.99;100.00;52346.19;5066009;28;20011;-61
2022/06/11 00:10:59;;;;;;;;;;;;;;;-144.99;100.00;52276.88;5057916;28;20479;-61
2022/06/11 00:13:25;;;;;;;;;;;;;;;-144.99;100.00;52305.41;5066007;28;20452;-62
2022/06/11 00:15:53;;;;;;;;;;;;;;;-144.99;100.00;52317.66;5059065;28;19925;-62
2022/06/11 00:18:21;;;;;;;;;;;;;;;-144.99;100.00;52264.66;5060282;28;20034;-60
2022/06/11 00:20:48;;;;;;;;;;;;;;;-144.99;100.00;52305.41;5067956;28;20417;-61
2022/06/11 00:23:14;;;;;;;;;;;;;;;-144.99;100.00;52309.50;5054868;28;20015;-61
2022/06/11 00:25:42;;;;;;;;;;;;;;;-144.99;100.00;52309.50;5062783;28;19932;-61
2022/06/11 00:28:09;;;;;;;;;;;;;;;-144.99;100.00;52313.56;5060846;28;20378;-61
2022/06/11 00:30:36;;;;;;;;;;;;;;;-144.99;100.00;52321.72;5064872;28;20022;-61
2022/06/11 00:33:06;;;;;;;;;;;;;;;-144.99;100.00;52305.41;5063544;28;19924;-60
2022/06/11 00:35:35;;;;;;;;;;;;;;;-144.99;100.00;52293.19;5069905;28;19924;-59
2022/06/11 00:38:02;;;;;;;;;;;;;;;-144.99;100.00;52313.56;5062030;28;20348;-60
2022/06/11 00:40:30;;;;;;;;;;;;;;;-144.99;100.00;52307.47;5058593;28;19928;-60
2022/06/11 00:42:57;;;;;;;;;;;;;;;-144.99;100.00;52272.81;5069125;28;20019;-61
2022/06/11 00:45:25;;;;;;;;;;;;;;;-144.99;100.00;52280.97;5059586;28;19998;-61
2022/06/11 00:47:54;;;;;;;;;;;;;;;-144.99;100.00;52256.50;5068914;28;19931;-61
2022/06/11 00:50:23;;;;;;;;;;;;;;;-144.99;100.00;52329.88;5066421;28;20019;-62
2022/06/11 00:52:51;;;;;;;;;;;;;;;-144.99;100.00;52260.56;5054224;28;20003;-61
2022/06/11 00:55:21;;;;;;;;;;;;;;;-144.99;100.00;52317.66;5067370;28;19925;-62
2022/06/11 00:57:50;;;;;;;;;;;;;;;-144.99;100.00;52297.25;5056471;28;19970;-61
2022/06/11 01:00:20;;;;;;;;;;;;;;;-144.99;100.00;52325.81;5058778;28;19979;-61
2022/06/11 01:02:47;;;;;;;;;;;;;;;-144.99;100.00;52280.97;5064928;28;20441;-61
2022/06/11 01:05:15;;;;;;;;;;;;;;;-144.99;100.00;52321.72;5051426;28;19998;-62
2022/06/11 01:07:47;;;;;;;;;;;;;;;-144.99;100.00;52309.50;5070539;28;20031;-62
2022/06/11 01:10:25;;;;;;;;;;;;;;;-144.99;100.00;52285.03;5056747;28;20028;-61
2022/06/11 01:12:58;;;;;;;;;;;;;;;-144.99;100.00;52301.34;5072487;28;19929;-62
2022/06/11 01:15:29;;;;;;;;;;;;;;;-144.99;100.00;52323.75;5062827;28;19925;-62
2022/06/11 01:18:04;;;;;;;;;;;;;;;-144.99;100.00;52305.41;5065637;28;19978;-62
2022/06/11 01:20:39;;;;;;;;;;;;;;;-144.99;100.00;52305.41;5061399;28;19958;-62
2022/06/11 01:23:31;;;;;;;;;;;;;;;-144.99;100.00;52268.72;5056324;28;19933;-62
2022/06/11 01:26:07;;;;;;;;;;;;;;;-144.99;100.00;52325.81;5069470;28;20370;-62
2022/06/11 01:28:43;;;;;;;;;;;;;;;-144.99;100.00;52309.50;5060433;28;19932;-62
2022/06/11 01:31:14;;;;;;;;;;;;;;;-144.99;100.00;52301.34;5063429;28;20199;-62
2022/06/11 01:33:45;;;;;;;;;;;;;;;-144.99;100.00;52291.16;5071558;28;19924;-62
2022/06/11 01:36:16;;;;;;;;;;;;;;;-144.99;100.00;52278.91;5072636;28;19924;-60
2022/06/11 01:38:44;;;;;;;;;;;;;;;-144.99;100.00;52305.41;5059509;28;20007;-61
2022/06/11 01:41:24;;;;;;;;;;;;;;;-144.99;100.00;52309.50;5067013;28;19982;-62
2022/06/11 01:43:53;;;;;;;;;;;;;;;-144.99;100.00;52321.72;5061195;28;20445;-63
2022/06/11 01:46:23;;;;;;;;;;;;;;;-144.99;100.00;52354.34;5068024;28;19925;-62
2022/06/11 01:48:51;;;;;;;;;;;;;;;-144.99;100.00;52313.56;5072550;28;19960;-63
2022/06/11 01:51:24;;;;;;;;;;;;;;;-144.99;100.00;52301.34;5067754;28;20397;-62
2022/06/11 01:54:11;;;;;;;;;;;;;;;-144.99;100.00;52313.56;5061205;28;19964;-63
2022/06/11 01:56:54;;;;;;;;;;;;;;;-144.99;100.00;52301.34;5055105;28;20411;-61
2022/06/11 01:59:36;;;;;;;;;;;;;;;-144.99;100.00;52305.41;5066949;28;19980;-61
2022/06/11 02:02:14;;;;;;;;;;;;;;;-144.99;100.00;52305.41;5064841;28;19968;-61
2022/06/11 02:04:50;;;;;;;;;;;;;;;-144.99;100.00;52317.66;5059809;28;19925;-61
2022/06/11 02:07:19;;;;;;;;;;;;;;;-144.99;100.00;52309.50;5067538;28;20099;-61
2022/06/11 02:09:50;;;;;;;;;;;;;;;-144.99;100.00;52293.19;5060398;28;19968;-61
2022/06/11 02:12:21;;;;;;;;;;;;;;;-144.99;100.00;52327.84;5060297;28;20019;-61
2022/06/11 02:14:51;;;;;;;;;;;;;;;-144.99;100.00;52305.41;5061298;28;20009;-61
2022/06/11 02:17:21;;;;;;;;;;;;;;;-144.99;100.00;52317.66;5067282;28;19947;-61
2022/06/11 02:19:50;;;;;;;;;;;;;;;-144.99;100.00;52321.72;5064023;28;19932;-61
2022/06/11 02:22:18;;;;;;;;;;;;;;;-144.99;100.00;52317.66;5064570;28;20277;-61
2022/06/11 02:24:49;;;;;;;;;;;;;;;-144.99;100.00;52325.81;5060596;28;20352;-62
2022/06/11 02:27:25;;;;;;;;;;;;;;;-144.99;100.00;52293.19;5058825;28;19924;-62
2022/06/11 02:29:53;;;;;;;;;;;;;;;-144.99;100.00;52325.81;5062130;28;20401;-63
2022/06/11 02:32:23;;;;;;;;;;;;;;;-144.99;100.00;52325.81;5058578;28;20020;-61
2022/06/11 02:34:51;;;;;;;;;;;;;;;-144.99;100.00;52321.72;5067227;28;19924;-60
2022/06/11 02:37:19;;;;;;;;;;;;;;;-144.99;100.00;52329.88;5068527;28;20005;-61
2022/06/11 02:39:46;;;;;;;;;;;;;;;-144.99;100.00;52297.25;5056675;28;20292;-63
2022/06/11 02:42:16;;;;;;;;;;;;;;;-144.99;100.00;52329.88;5070835;28;20182;-62
2022/06/11 02:44:42;;;;;;;;;;;;;;;-144.99;100.00;52309.50;5061393;28;19962;-61
2022/06/11 02:47:09;;;;;;;;;;;;;;;-144.99;100.00;52325.81;5071696;28;19975;-62
2022/06/11 02:49:38;;;;;;;;;;;;;;;-144.99;100.00;52313.56;5062987;28;19924;-62
2022/06/11 02:52:08;;;;;;;;;;;;;;;-144.99;100.00;52272.81;5058422;28;19925;-62
2022/06/11 02:54:34;;;;;;;;;;;;;;;-144.99;100.00;52338.03;5069283;28;20460;-62
2022/06/11 02:57:02;;;;;;;;;;;;;;;-144.99;100.00;52354.34;5058443;28;20366;-64
2022/06/11 02:59:29;;;;;;;;;;;;;;;-144.99;100.00;52315.59;5059744;28;19931;-63
2022/06/11 03:01:56;;;;;;;;;;;;;;;-144.99;100.00;52333.94;5063165;28;20006;-61
2022/06/11 03:04:23;;;;;;;;;;;;;;;-144.99;100.00;52313.56;5058458;28;19959;-62
2022/06/11 03:06:51;;;;;;;;;;;;;;;-144.99;100.00;52321.72;5064278;28;19925;-63
2022/06/11 03:09:19;;;;;;;;;;;;;;;-144.99;100.00;52348.22;5061980;28;20019;-62
2022/06/11 03:11:46;;;;;;;;;;;;;;;-144.99;100.00;52301.34;5056581;28;19925;-61
2022/06/11 03:14:13;;;;;;;;;;;;;;;-144.99;100.00;52309.50;5064359;28;19924;-61
2022/06/11 03:16:39;;;;;;;;;;;;;;;-144.99;100.00;52329.88;5063513;28;20475;-60
2022/06/11 03:19:06;;;;;;;;;;;;;;;-144.99;100.00;52309.50;5073486;22;19935;-71
2022/06/11 03:21:33;;;;;;;;;;;;;;;-144.99;100.00;52317.66;5039608;28;19925;-72
2022/06/11 03:24:01;;;;;;;;;;;;;;;-144.99;100.00;52317.66;5043309;28;19925;-71
2022/06/11 03:26:28;;;;;;;;;;;;;;;-144.99;100.00;52301.34;5048415;28;19932;-72
2022/06/11 03:28:55;;;;;;;;;;;;;;;-144.99;100.00;52338.03;5041369;28;20031;-72
2022/06/11 03:31:22;;;;;;;;;;;;;;;-144.99;100.00;52313.56;5046152;28;20016;-72
2022/06/11 03:33:48;;;;;;;;;;;;;;;-144.99;100.00;52299.31;5041834;28;19978;-72
2022/06/11 03:36:16;;;;;;;;;;;;;;;-144.99;100.00;52313.56;5040581;28;20294;-72
2022/06/11 03:38:43;;;;;;;;;;;;;;;-144.99;100.00;52317.66;5044973;28;19925;-72
2022/06/11 03:41:11;;;;;;;;;;;;;;;-144.99;100.00;52325.81;5050221;28;20103;-72
2022/06/11 03:43:38;;;;;;;;;;;;;;;-144.99;100.00;52325.81;5046216;28;19956;-72
2022/06/11 03:46:06;;;;;;;;;;;;;;;-144.99;100.00;52321.72;5047179;28;19929;-72
2022/06/11 03:48:33;;;;;;;;;;;;;;;-144.99;100.00;52303.38;5047096;28;19928;-72
2022/06/11 03:51:00;;;;;;;;;;;;;;;-144.99;100.00;52309.50;5050095;28;20012;-72
2022/06/11 03:53:28;;;;;;;;;;;;;;;-144.99;100.00;52329.88;5047331;28;20017;-71
2022/06/11 03:55:55;;;;;;;;;;;;;;;-144.99;100.00;52333.94;5049683;28;20374;-72
2022/06/11 03:58:22;;;;;;;;;;;;;;;-144.99;100.00;52297.25;5047897;28;20017;-72
2022/06/11 04:03:34;;;;;;;;;;;;;;;-144.99;100.00;52313.56;5042402;28;20186;-72
2022/06/11 04:06:00;;;;;;;;;;;;;;;-144.99;100.00;52350.25;5047760;28;20023;-72
2022/06/11 04:08:27;;;;;;;;;;;;;;;-144.99;100.00;52336.00;5042338;28;19925;-72
2022/06/11 04:10:56;;;;;;;;;;;;;;;-144.99;100.00;52309.50;5043201;28;19925;-72
2022/06/11 04:13:25;;;;;;;;;;;;;;;-144.99;100.00;52350.25;5049472;28;19925;-72
2022/06/11 04:15:52;;;;;;;;;;;;;;;-144.99;100.00;52305.41;5049437;28;20457;-72
2022/06/11 04:18:23;;;;;;;;;;;;;;;-144.99;100.00;52309.50;5041738;28;20027;-72
2022/06/11 04:20:49;;;;;;;;;;;;;;;-144.99;100.00;52323.75;5040785;28;20365;-72
2022/06/11 04:23:16;;;;;;;;;;;;;;;-144.99;100.00;52321.72;5048055;28;19968;-72
2022/06/11 04:25:42;;;;;;;;;;;;;;;-144.99;100.00;52293.19;5052426;28;19937;-72
2022/06/11 04:28:09;;;;;;;;;;;;;;;-144.99;100.00;52329.88;5048421;28;19925;-71
2022/06/11 04:30:38;;;;;;;;;;;;;;;-144.99;100.00;52309.50;5046912;28;20019;-72
2022/06/11 04:33:04;;;;;;;;;;;;;;;-144.99;100.00;52342.09;5041626;28;20012;-72
2022/06/11 04:35:31;;;;;;;;;;;;;;;-144.99;100.00;52301.34;5048712;28;19963;-73
2022/06/11 04:37:58;;;;;;;;;;;;;;;-144.99;100.00;52333.94;5049360;28;19925;-72
2022/06/11 04:40:25;;;;;;;;;;;;;;;-144.99;100.00;52289.13;5049337;28;20112;-73
2022/06/11 04:42:51;;;;;;;;;;;;;;;-144.99;100.00;52293.19;5046617;28;19960;-73
2022/06/11 04:45:18;;;;;;;;;;;;;;;-144.99;100.00;52325.81;5047851;28;19928;-73
2022/06/11 04:47:47;;;;;;;;;;;;;;;-144.99;100.00;52291.16;5041675;28;19928;-73
2022/06/11 04:50:15;;;;;;;;;;;;;;;-144.99;100.00;52346.19;5049636;28;19929;-71
2022/06/11 04:52:41;;;;;;;;;;;;;;;-144.99;100.00;52309.50;5038732;28;20358;-70
2022/06/11 04:55:08;;;;;;;;;;;;;;;-144.99;100.00;52313.56;5034301;28;20012;-70
2022/06/11 04:57:34;;;;;;;;;;;;;;;-144.99;100.00;52309.50;5049143;28;19925;-70
2022/06/11 05:00:01;;;;;;;;;;;;;;;-144.99;100.00;52325.81;5049412;28;20463;-69
2022/06/11 05:02:28;;;;;;;;;;;;;;;-144.99;100.00;52297.25;5047346;28;19925;-69
2022/06/11 05:04:56;;;;;;;;;;;;;;;-144.99;100.00;52280.97;5044208;28;20028;-70
2022/06/11 05:07:22;;;;;;;;;;;;;;;-144.99;100.00;52329.88;5047605;28;20228;-70
2022/06/11 05:09:49;;;;;;;;;;;;;;;-144.99;100.00;52276.88;5049764;28;19974;-70
2022/06/11 05:12:16;;;;;;;;;;;;;;;-144.99;100.00;52313.56;5044884;28;19964;-71
2022/06/11 05:14:42;;;;;;;;;;;;;;;-144.99;100.00;52307.47;5049794;28;19932;-71
2022/06/11 05:17:09;;;;;;;;;;;;;;;-144.99;100.00;52289.13;5049026;28;19964;-70
2022/06/11 05:19:36;;;;;;;;;;;;;;;-144.99;100.00;52276.88;5047047;28;20016;-70
2022/06/11 05:22:04;;;;;;;;;;;;;;;-144.99;100.00;52293.19;5045793;28;19964;-70
2022/06/11 05:24:31;;;;;;;;;;;;;;;-144.99;100.00;52313.56;5049507;28;20282;-69
2022/06/11 05:26:59;;;;;;;;;;;;;;;-144.99;100.00;52285.03;5046079;28;19936;-70
2022/06/11 05:29:27;;;;;;;;;;;;;;;-144.99;100.00;52301.34;5049178;28;19925;-70
2022/06/11 05:31:53;;;;;;;;;;;;;;;-144.99;100.00;52264.66;5046730;28;20148;-70
2022/06/11 05:34:20;;;;;;;;;;;;;;;-144.99;100.00;52268.72;5048652;28;19979;-70
2022/06/11 05:36:46;;;;;;;;;;;;;;;-144.99;100.00;52285.03;5048383;28;20366;-70
2022/06/11 05:39:14;;;;;;;;;;;;;;;-144.99;99.80;52272.81;5047737;28;20016;-70
2022/06/11 05:41:41;;;;;;;;;;;;;;;-144.99;99.64;52287.06;5048178;28;19925;-70
2022/06/11 05:44:07;;;;;;;;;;;;;;;-144.99;98.35;52309.50;5048750;28;20392;-70
2022/06/11 05:46:35;;;;;;;;;;;;;;;-144.99;97.97;52280.97;5047827;28;19978;-70
2022/06/11 05:49:02;;;;;;;;;;;;;;;-144.99;99.02;52278.91;5045815;28;19931;-69
2022/06/11 05:51:31;;;;;;;;;;;;;;;-144.99;99.16;52232.03;5041477;28;19980;-70
2022/06/11 05:53:59;;;;;;;;;;;;;;;-144.99;98.73;52272.81;5047603;28;20393;-70
2022/06/11 05:56:28;;;;;;;;;;;;;;;-144.99;96.89;52266.69;5052493;28;20200;-70
2022/06/11 05:58:57;;;;;;;;;;;;;;;-144.99;92.26;52285.03;5051862;28;19959;-69
2022/06/11 06:01:25;;;;;;;;;;;;;;;-144.99;91.79;52227.97;5049649;28;19925;-70
2022/06/11 06:03:51;;;;;;;;;;;;;;;-144.99;88.08;52289.13;5046918;28;20015;-70
2022/06/11 06:06:18;;;;;;;;;;;;;;;-144.99;87.04;52289.13;5050004;28;19925;-69
2022/06/11 06:08:45;;;;;;;;;;;;;;;-144.99;87.16;52268.72;5055364;28;19979;-69
2022/06/11 06:11:11;;;;;;;;;;;;;;;-144.99;86.47;52285.03;5053286;28;20417;-69
2022/06/11 06:13:48;;;;;;;;;;;;;;;-144.99;86.04;52297.25;5058021;28;19976;-69
2022/06/11 06:16:14;;;;;;;;;;;;;;;-144.99;87.45;52289.13;5055156;28;19959;-69
2022/06/11 06:18:41;;;;;;;;;;;;;;;-144.99;86.93;52280.97;5051239;28;20433;-70
2022/06/11 06:21:07;;;;;;;;;;;;;;;-144.99;86.44;52301.34;5052224;28;19960;-69
2022/06/11 06:23:34;;;;;;;;;;;;;;;-144.99;84.61;52264.66;5043452;28;19978;-69
2022/06/11 06:26:01;;;;;;;;;;;;;;;-144.99;85.51;52301.34;5052120;28;19927;-70
2022/06/11 06:28:27;;;;;;;;;;;;;;;-144.99;84.41;52315.59;5048787;28;19998;-70
2022/06/11 06:30:58;;;;;;;;;;;;;;;-144.99;84.10;52227.97;5052181;28;19925;-70
2022/06/11 06:33:25;;;;;;;;;;;;;;;-144.99;81.51;52313.56;5050222;28;19933;-70
2022/06/11 06:35:52;;;;;;;;;;;;;;;-144.99;81.40;52313.56;5050077;28;20042;-69
2022/06/11 06:38:19;;;;;;;;;;;;;;;-144.99;80.29;52260.56;5051660;28;19929;-69
2022/06/11 06:40:45;;;;;;;;;;;;;;;-144.99;80.00;52268.72;5049856;28;19983;-70
2022/06/11 06:43:12;;;;;;;;;;;;;;;-144.99;79.93;52276.88;5051486;28;19971;-70
2022/06/11 06:45:38;;;;;;;;;;;;;;;-144.99;77.56;52278.91;5050864;28;19929;-69
2022/06/11 06:48:06;;;;;;;;;;;;;;;-144.99;78.79;52299.31;5049314;28;20019;-69
2022/06/11 06:50:33;;;;;;;;;;;;;;;-144.99;78.36;52256.50;5049479;28;20046;-70
2022/06/11 06:53:00;;;;;;;;;;;;;;;-144.99;78.17;52280.97;5050723;28;19925;-70
2022/06/11 06:55:26;;;;;;;;;;;;;;;-144.99;77.14;52276.88;5052285;28;19960;-69
2022/06/11 06:57:52;;;;;;;;;;;;;;;-144.99;75.54;52278.91;5051916;28;20024;-69
2022/06/11 07:00:19;;;;;;;;;;;;;;;-144.99;75.66;52280.97;5049537;28;19929;-69
2022/06/11 07:02:46;;;;;;;;;;;;;;;-144.99;75.56;52293.19;5051950;28;19983;-71
2022/06/11 07:05:15;;;;;;;;;;;;;;;-144.99;76.36;52280.97;5045052;28;19929;-70
2022/06/11 07:07:42;;;;;;;;;;;;;;;-144.99;75.94;52293.19;5051325;28;20639;-70
2022/06/11 07:10:09;;;;;;;;;;;;;;;-144.99;75.26;52293.19;5050675;28;19935;-70
2022/06/11 07:12:36;;;;;;;;;;;;;;;-144.99;74.84;52264.66;5045874;28;19925;-70
2022/06/11 07:15:03;;;;;;;;;;;;;;;-144.99;73.92;52248.34;5051262;28;20020;-70
2022/06/11 07:17:32;;;;;;;;;;;;;;;-144.99;73.94;52264.66;5050942;28;19978;-69
2022/06/11 07:20:01;;;;;;;;;;;;;;;-144.99;71.58;52305.41;5049150;28;20312;-70
2022/06/11 07:22:32;;;;;;;;;;;;;;;-144.99;71.55;52293.19;5042424;28;19929;-69
2022/06/11 07:24:59;;;;;;;;;;;;;;;-144.99;71.96;52289.13;5049658;28;19982;-70
2022/06/11 07:27:27;;;;;;;;;;;;;;;-144.99;71.30;52293.19;5047749;28;19955;-70
2022/06/11 07:29:55;;;;;;;;;;;;;;;-144.99;70.23;52264.66;5045420;28;19929;-70
2022/06/11 07:32:22;;;;;;;;;;;;;;;-144.99;69.41;52268.72;5049436;28;19939;-71
2022/06/11 07:34:49;;;;;;;;;;;;;;;-144.99;67.43;52244.28;5050805;28;19928;-70
2022/06/11 07:37:16;;;;;;;;;;;;;;;-144.99;66.25;52262.63;5051054;28;19967;-69
2022/06/11 07:39:44;;;;;;;;;;;;;;;-144.99;66.21;52244.28;5049187;28;20027;-70
2022/06/11 07:42:11;;;;;;;;;;;;;;;-144.99;65.41;52215.75;5042886;28;19972;-70
2022/06/11 07:44:38;;;;;;;;;;;;;;;-144.99;65.25;52291.16;5050434;28;19925;-69
2022/06/11 07:47:04;;;;;;;;;;;;;;;-144.99;65.34;52236.13;5050069;28;20293;-70
2022/06/11 07:49:31;;;;;;;;;;;;;;;-144.99;64.30;52217.78;5053521;28;20428;-69
2022/06/11 07:51:58;;;;;;;;;;;;;;;-144.99;64.26;52244.28;5053327;28;19951;-70
2022/06/11 07:54:25;;;;;;;;;;;;;;;-144.99;63.08;52270.78;5049434;28;19960;-69
2022/06/11 07:56:53;;;;;;;;;;;;;;;-144.99;63.31;52244.28;5050623;28;19929;-70
2022/06/11 07:59:19;;;;;;;;;;;;;;;-144.99;62.94;52227.97;5050609;28;19925;-69
2022/06/11 08:01:45;;;;;;;;;;;;;;;-144.99;63.22;52236.13;5048024;28;19935;-70
2022/06/11 08:04:12;;;;;;;;;;;;;;;-144.99;63.64;52225.94;5046492;28;19931;-70
2022/06/11 08:06:39;;;;;;;;;;;;;;;-144.99;64.16;52234.09;5050535;28;20019;-71
2022/06/11 08:09:05;;;;;;;;;;;;;;;-144.99;64.55;52250.38;5050529;28;19931;-69
2022/06/11 08:11:32;;;;;;;;;;;;;;;-144.99;64.21;52203.50;5048548;28;19929;-70
2022/06/11 08:14:00;;;;;;;;;;;;;;;-144.99;63.84;52227.97;5050773;28;20012;-70
2022/06/11 08:16:26;;;;;;;;;;;;;;;-144.99;63.57;52232.03;5042065;28;19979;-69
2022/06/11 08:18:53;;;;;;;;;;;;;;;-144.99;63.73;52227.97;5047825;28;20317;-70
2022/06/11 08:21:19;;;;;;;;;;;;;;;-144.99;63.73;52223.88;5043072;28;19964;-70
2022/06/11 08:23:46;;;;;;;;;;;;;;;-144.99;63.44;52223.88;5046528;28;19925;-69
2022/06/11 08:26:12;;;;;;;;;;;;;;;-144.99;62.31;52256.50;5050936;28;20301;-70
2022/06/11 08:28:39;;;;;;;;;;;;;;;-144.99;62.19;52219.81;5050846;28;20027;-70
2022/06/11 08:31:07;;;;;;;;;;;;;;;-144.99;62.35;52221.84;5049950;28;19925;-70
2022/06/11 08:33:33;;;;;;;;;;;;;;;-144.99;61.46;52215.75;5048928;28;19929;-70
2022/06/11 08:36:00;;;;;;;;;;;;;;;-144.99;59.01;52223.88;5048106;28;19979;-70
2022/06/11 08:38:26;;;;;;;;;;;;;;;-144.99;59.77;52244.28;5050126;28;19984;-69
2022/06/11 08:40:54;;;;;;;;;;;;;;;-144.99;59.25;52242.22;5046434;28;19976;-69
2022/06/11 08:43:23;;;;;;;;;;;;;;;-144.99;59.58;52199.44;5045530;28;20302;-70
2022/06/11 08:45:50;;;;;;;;;;;;;;;-144.99;58.66;52232.03;5048175;28;19928;-70
2022/06/11 08:48:22;;;;;;;;;;;;;;;-144.99;58.86;52211.66;5049750;28;19960;-70
2022/06/11 08:50:54;;;;;;;;;;;;;;;-144.99;57.46;52219.81;5049505;28;19967;-70
2022/06/11 08:53:22;;;;;;;;;;;;;;;-144.99;55.93;52183.13;5047492;28;19976;-70
2022/06/11 08:55:49;;;;;;;;;;;;;;;-144.99;55.93;52195.34;5042148;28;19925;-70
2022/06/11 08:58:22;;;;;;;;;;;;;;;-144.99;55.24;52223.88;5049462;28;19928;-70
2022/06/11 09:00:53;;;;;;;;;;;;;;;-144.99;53.35;52223.88;5046735;28;19959;-69
2022/06/11 09:03:27;;;;;;;;;;;;;;;-144.99;52.02;52248.34;5047195;28;20019;-70
2022/06/11 09:06:13;;;;;;;;;;;;;;;-144.99;53.44;52203.50;5045745;28;20582;-70
2022/06/11 09:08:47;;;;;;;;;;;;;;;-144.99;51.10;52195.34;5044233;28;20407;-70
2022/06/11 09:11:25;;;;;;;;;;;;;;;-144.99;50.32;52223.88;5047217;28;20251;-69
2022/06/11 09:14:05;;;;;;;;;;;;;;;-144.99;50.99;52240.19;5050069;28;19925;-70
2022/06/11 09:16:40;;;;;;;;;;;;;;;-144.99;51.31;52248.34;5042147;28;20369;-70
2022/06/11 09:21:45;;;;;;;;;;;;;;;-144.99;49.05;52223.88;5018532;28;20300;-61
2022/06/11 09:24:24;;;;;;;;;;;;;;;-144.99;48.72;52223.88;5024293;28;20024;-61
2022/06/11 09:26:55;;;;;;;;;;;;;;;-144.99;49.00;52232.03;5028589;28;20548;-61
2022/06/11 09:29:26;;;;;;;;;;;;;;;-144.99;49.18;52244.28;5029747;28;19972;-62
2022/06/11 09:31:57;;;;;;;;;;;;;;;-144.99;48.37;52225.94;5026598;28;19968;-61
2022/06/11 09:34:29;;;;;;;;;;;;;;;-144.99;48.83;52225.94;5031627;28;20358;-61
2022/06/11 09:37:01;;;;;;;;;;;;;;;-144.99;46.17;52195.34;5032305;28;19931;-61
2022/06/11 09:39:35;;;;;;;;;;;;;;;-144.99;43.93;52248.34;5023019;28;20354;-61
2022/06/11 09:42:11;;;;;;;;;;;;;;;-144.99;45.64;52256.50;5032064;28;19925;-61
2022/06/11 09:44:40;;;;;;;;;;;;;;;-144.99;46.71;52244.28;5026810;28;19986;-61
2022/06/11 09:47:11;;;;;;;;;;;;;;;-144.99;46.33;52217.78;5032060;28;19925;-61
2022/06/11 09:49:46;;;;;;;;;;;;;;;-144.99;45.72;52211.66;5030287;28;19925;-62
2022/06/11 09:52:16;;;;;;;;;;;;;;;-144.99;46.56;52234.09;5032045;28;19925;-60
2022/06/11 09:54:52;;;;;;;;;;;;;;;-144.99;44.93;52207.59;5032653;28;19935;-61
2022/06/11 09:57:29;;;;;;;;;;;;;;;-144.99;44.49;52211.66;5030211;28;19929;-60
2022/06/11 09:59:59;;;;;;;;;;;;;;;-144.99;44.18;52199.44;5031881;28;20394;-61
2022/06/11 10:02:30;;;;;;;;;;;;;;;-144.99;43.64;52199.44;5027999;28;19939;-62
2022/06/11 10:04:57;;;;;;;;;;;;;;;-144.99;43.62;52179.06;5020648;28;19934;-61
2022/06/11 10:07:29;;;;;;;;;;;;;;;-144.99;43.69;52183.13;5030618;28;19926;-61
2022/06/11 10:09:58;;;;;;;;;;;;;;;-144.99;43.90;52170.91;5032264;28;20025;-61
2022/06/11 10:12:28;;;;;;;;;;;;;;;-144.99;43.67;52166.81;5029651;28;19983;-61
2022/06/11 10:14:57;;;;;;;;;;;;;;;-144.99;44.02;52181.09;5032296;28;20036;-61
2022/06/11 10:17:25;;;;;;;;;;;;;;;-144.99;43.99;52166.81;5031234;28;20047;-61
2022/06/11 10:19:54;;;;;;;;;;;;;;;-144.99;43.13;52166.81;5028793;28;19945;-60
2022/06/11 10:22:22;;;;;;;;;;;;;;;-144.99;43.11;52150.53;5029092;28;19983;-60
2022/06/11 10:25:01;;;;;;;;;;;;;;;-144.99;43.37;52160.72;5023856;28;19971;-60
2022/06/11 10:27:30;;;;;;;;;;;;;;;-144.99;43.82;52187.19;5023474;28;19978;-60
2022/06/11 10:30:01;;;;;;;;;;;;;;;-144.99;43.97;52160.72;5030523;28;19939;-60
2022/06/11 10:32:30;;;;;;;;;;;;;;;-144.99;43.51;52179.06;5023311;28;20008;-60
2022/06/11 10:34:59;;;;;;;;;;;;;;;-144.99;43.83;52187.19;5029804;28;19943;-61
2022/06/11 10:37:28;;;;;;;;;;;;;;;-144.99;43.94;52148.47;5029500;28;20351;-61
2022/06/11 10:39:58;;;;;;;;;;;;;;;-144.99;43.76;52136.25;5030518;28;19964;-61
2022/06/11 10:42:32;;;;;;;;;;;;;;;-144.99;43.40;52130.13;5028876;28;19933;-61
2022/06/11 10:44:58;;;;;;;;;;;;;;;-144.99;44.37;52138.28;5029776;28;20021;-61
2022/06/11 10:47:29;;;;;;;;;;;;;;;-144.99;43.31;52089.38;5030925;28;20019;-60
2022/06/11 10:50:00;;;;;;;;;;;;;;;-144.99;42.84;52152.56;5029819;28;20040;-60
2022/06/11 10:52:30;;;;;;;;;;;;;;;-144.99;43.37;52107.72;5024082;28;19940;-60
2022/06/11 10:54:57;;;;;;;;;;;;;;;-144.99;42.76;52121.97;5030894;28;20032;-60
2022/06/11 10:57:26;;;;;;;;;;;;;;;-144.99;43.36;52126.06;5029418;28;19995;-60
2022/06/11 10:59:59;;;;;;;;;;;;;;;-144.99;43.35;52091.41;5030975;28;19956;-61
2022/06/11 11:02:29;;;;;;;;;;;;;;;-144.99;43.19;52113.84;5030094;28;19932;-61
2022/06/11 11:04:56;;;;;;;;;;;;;;;-144.99;42.73;52111.78;5026750;28;19929;-60
2022/06/11 11:07:24;;;;;;;;;;;;;;;-144.99;43.82;52158.66;5029841;28;20330;-60
2022/06/11 11:09:51;;;;;;;;;;;;;;;-144.99;43.49;52211.66;5030508;28;20197;-60
2022/06/11 11:12:20;;;;;;;;;;;;;;;-144.99;43.86;52101.59;5026186;28;19933;-60
2022/06/11 11:14:55;;;;;;;;;;;;;;;-144.99;43.31;52113.84;5030397;28;20036;-61
2022/06/11 11:17:25;;;;;;;;;;;;;;;-144.99;42.91;52093.44;5029226;28;19951;-61
2022/06/11 11:22:34;;;;;;;;;;;;;;;-144.99;43.24;52187.19;5023394;28;19925;-60
2022/06/11 11:25:02;;;;;;;;;;;;;;;-144.99;43.82;52174.97;5025905;28;20349;-60
2022/06/11 11:27:30;;;;;;;;;;;;;;;-144.99;44.05;52162.75;5022759;28;19961;-60
2022/06/11 11:29:58;;;;;;;;;;;;;;;-144.99;43.51;52073.06;5030142;28;20350;-61
2022/06/11 11:32:30;;;;;;;;;;;;;;;-144.99;43.53;52207.59;5028181;28;19967;-60
2022/06/11 11:34:56;;;;;;;;;;;;;;;-144.99;44.02;52136.25;5021390;28;19956;-61
2022/06/11 11:37:25;;;;;;;;;;;;;;;-144.99;44.07;52193.31;5031000;28;19987;-60
2022/06/11 11:39:52;;;;;;;;;;;;;;;-144.99;44.61;52203.50;5027424;28;19988;-61
2022/06/11 11:42:20;;;;;;;;;;;;;;;-144.99;44.31;52150.53;5031096;28;19925;-61
2022/06/11 11:44:49;;;;;;;;;;;;;;;-144.99;43.43;52115.88;5029147;28;19925;-61
2022/06/11 11:47:18;;;;;;;;;;;;;;;-144.99;43.71;52130.13;5028345;28;20028;-61
2022/06/11 11:49:51;;;;;;;;;;;;;;;-144.99;43.90;52119.94;5029983;28;20342;-60
2022/06/11 11:52:20;;;;;;;;;;;;;;;-144.99;43.91;52158.66;5023614;28;20491;-60
2022/06/11 11:54:50;;;;;;;;;;;;;;;-144.99;44.60;52191.28;5022232;28;19968;-60
2022/06/11 11:57:17;;;;;;;;;;;;;;;-144.99;45.26;52172.94;5028629;28;20337;-60
2022/06/11 11:59:46;;;;;;;;;;;;;;;-144.99;44.98;52174.97;5029827;28;19982;-60
2022/06/11 12:02:16;;;;;;;;;;;;;;;-144.99;44.79;52219.81;5026469;28;19971;-60
2022/06/11 12:04:49;;;;;;;;;;;;;;;-144.99;44.73;52172.94;5024747;28;19925;-61
2022/06/11 12:07:20;;;;;;;;;;;;;;;-144.99;44.30;52093.44;5026409;28;20024;-60
2022/06/11 12:09:49;;;;;;;;;;;;;;;-144.99;43.37;52138.28;5029171;28;20386;-61
2022/06/11 12:12:19;;;;;;;;;;;;;;;-144.99;43.80;52158.66;5026984;28;20021;-61
2022/06/11 12:14:50;;;;;;;;;;;;;;;-144.99;43.61;52162.75;5029358;28;19925;-60
2022/06/11 12:17:37;;;;;;;;;;;;;;;-144.99;42.73;52119.94;5028422;28;19925;-60
2022/06/11 12:20:07;;;;;;;;;;;;;;;-144.99;42.54;52097.53;5026402;28;19925;-61
2022/06/11 12:22:37;;;;;;;;;;;;;;;-144.99;41.98;52119.94;5021208;28;19925;-61
2022/06/11 12:25:05;;;;;;;;;;;;;;;-144.99;41.93;52073.06;5025826;28;20405;-61
2022/06/11 12:27:33;;;;;;;;;;;;;;;-144.99;41.80;52077.16;5025372;28;20028;-61
2022/06/11 12:30:02;;;;;;;;;;;;;;;-144.99;41.28;52044.53;5028781;28;20016;-62
2022/06/11 12:32:30;;;;;;;;;;;;;;;-144.99;41.47;52052.69;5017616;28;19983;-62
2022/06/11 12:34:57;;;;;;;;;;;;;;;-144.99;40.47;52034.34;5024351;28;19932;-63
2022/06/11 12:37:28;;;;;;;;;;;;;;;-144.99;39.96;52036.38;5029291;28;20023;-63
2022/06/11 12:40:03;;;;;;;;;;;;;;;-144.99;38.14;52064.91;5025413;28;20369;-62